Time;durP1;ratioP1;P1;durP2;ratioP2;P2;SDS_P1;SDS_P2;PMS_P1;PMS_P2;Temp;Humidity;BMP_temperature;BMP_pressure;BME280_temperature;BME280_humidity;BME280_pressure;Samples;Min_cycle;Max_cycle;Signal;HPM_P1;HPM_P2
2021/06/24 00:01:29;;;;;;;9.35;5.50;;;;;;;26.00;64.08;100441.50;1827116;77;22587;-62
2021/06/24 00:04:03;;;;;;;8.15;4.80;;;;;;;25.78;64.66;100443.63;1834535;77;22530;-60
2021/06/24 00:06:36;;;;;;;14.30;5.97;;;;;;;25.74;64.81;100443.01;1817375;77;22598;-60
2021/06/24 00:09:22;;;;;;;12.18;5.28;;;;;;;25.66;64.83;100447.61;1731678;83;21146;-62
2021/06/24 00:11:55;;;;;;;13.15;5.47;;;;;;;25.54;65.09;100443.16;1827612;77;22202;-60
2021/06/24 00:14:29;;;;;;;10.88;5.60;;;;;;;25.49;65.19;100443.48;1826056;77;22210;-61
2021/06/24 00:17:03;;;;;;;11.48;5.45;;;;;;;25.47;65.35;100441.89;1814949;77;22222;-62
2021/06/24 00:19:49;;;;;;;11.80;5.22;;;;;;;25.44;65.47;100435.38;1761842;81;21142;-60
2021/06/24 00:22:22;;;;;;;13.65;5.10;;;;;;;25.45;65.37;100429.86;1821594;77;22206;-59
2021/06/24 00:24:55;;;;;;;11.00;4.60;;;;;;;25.44;65.33;100437.58;1818480;77;22142;-59
2021/06/24 00:27:28;;;;;;;7.62;5.37;;;;;;;25.39;65.39;100437.89;1837308;77;22205;-62
2021/06/24 00:30:01;;;;;;;11.53;5.22;;;;;;;25.48;65.22;100445.80;1852935;77;22199;-60
2021/06/24 00:32:47;;;;;;;10.05;5.45;;;;;;;25.45;65.08;100446.53;1750910;81;21099;-63
2021/06/24 00:35:20;;;;;;;11.05;5.47;;;;;;;25.50;65.12;100434.42;1827045;77;22693;-62
2021/06/24 00:37:53;;;;;;;9.40;5.12;;;;;;;25.52;65.02;100431.13;1831508;77;22185;-62
2021/06/24 00:40:26;;;;;;;8.88;5.45;;;;;;;25.46;65.24;100432.09;1852911;77;22630;-60
2021/06/24 00:43:01;;;;;;;12.85;5.17;;;;;;;25.45;65.30;100435.25;1808667;77;22182;-62
2021/06/24 00:45:47;;;;;;;10.93;5.83;;;;;;;25.41;65.25;100432.38;1741325;81;21739;-64
2021/06/24 00:48:20;;;;;;;11.55;6.75;;;;;;;25.46;65.24;100428.05;1794088;77;22679;-60
2021/06/24 00:50:53;;;;;;;12.07;6.08;;;;;;;25.48;65.21;100424.25;1826256;77;22175;-59
2021/06/24 00:53:46;;;;;;;12.88;5.95;;;;;;;25.47;65.24;100416.30;1810228;77;22231;-60
2021/06/24 00:56:30;;;;;;;12.28;6.00;;;;;;;25.47;65.24;100421.19;1829494;77;22596;-59
2021/06/24 00:59:16;;;;;;;13.72;5.60;;;;;;;25.43;65.25;100428.24;1762525;80;21161;-60
2021/06/24 01:01:49;;;;;;;13.60;5.35;;;;;;;25.39;65.34;100423.08;1820791;77;22631;-59
2021/06/24 01:04:22;;;;;;;13.93;5.53;;;;;;;25.33;65.34;100425.38;1834556;77;22176;-62
2021/06/24 01:07:08;;;;;;;12.90;5.72;;;;;;;25.19;65.46;100426.37;1737368;81;21336;-62
2021/06/24 01:09:41;;;;;;;12.95;6.08;;;;;;;25.29;65.09;100419.84;1833544;77;22621;-59
2021/06/24 01:12:14;;;;;;;14.85;6.05;;;;;;;25.24;65.27;100424.20;1811578;77;22257;-58
2021/06/24 01:14:50;;;;;;;15.18;6.17;;;;;;;25.21;65.16;100419.92;1830478;77;22143;-59
2021/06/24 01:17:23;;;;;;;19.65;7.37;;;;;;;25.19;65.01;100420.52;1805718;77;28101;-59
2021/06/24 01:19:56;;;;;;;11.25;5.58;;;;;;;25.19;64.88;100422.33;1820200;77;22153;-62
2021/06/24 01:22:29;;;;;;;10.10;5.97;;;;;;;25.15;64.83;100413.63;1837983;77;22201;-62
2021/06/24 01:25:03;;;;;;;9.90;5.47;;;;;;;25.02;65.28;100412.33;1833716;77;22539;-60
2021/06/24 01:27:37;;;;;;;10.90;5.60;;;;;;;25.09;65.06;100410.03;1810359;77;22214;-62
2021/06/24 01:30:11;;;;;;;13.98;6.05;;;;;;;25.04;65.27;100406.34;1838525;77;22183;-62
2021/06/24 01:32:57;;;;;;;13.08;6.33;;;;;;;25.02;65.24;100416.83;1791604;80;21182;-63
2021/06/24 01:35:31;;;;;;;15.63;6.37;;;;;;;24.99;65.27;100410.33;1853024;77;22143;-59
2021/06/24 01:38:06;;;;;;;12.73;6.20;;;;;;;24.89;65.48;100422.25;1798220;77;22225;-59
2021/06/24 01:40:54;;;;;;;12.13;5.55;;;;;;;24.85;65.71;100428.83;1767523;80;21195;-60
2021/06/24 01:43:27;;;;;;;17.12;6.12;;;;;;;24.78;66.15;100427.91;1806092;77;22238;-58
2021/06/24 01:46:01;;;;;;;11.93;5.67;;;;;;;25.00;65.62;100434.93;1822868;77;22178;-62
2021/06/24 01:48:34;;;;;;;12.78;6.10;;;;;;;24.93;65.59;100430.48;1816280;77;22169;-59
2021/06/24 01:51:08;;;;;;;12.80;6.05;;;;;;;24.97;65.42;100429.30;1834607;77;22172;-58
2021/06/24 01:53:54;;;;;;;11.65;5.50;;;;;;;24.94;65.31;100434.43;1761202;81;21122;-61
2021/06/24 01:56:27;;;;;;;10.45;5.70;;;;;;;24.97;65.22;100425.26;1824526;77;22170;-59
2021/06/24 01:59:00;;;;;;;10.13;5.53;;;;;;;24.99;65.22;100416.59;1828928;77;22173;-59
2021/06/24 02:02:03;;;;;;;8.48;5.22;;;;;;;24.95;65.25;100426.70;1795414;80;21127;-60
2021/06/24 02:04:36;;;;;;;16.70;6.58;;;;;;;25.02;65.22;100415.48;1820038;77;22120;-59
2021/06/24 02:07:09;;;;;;;15.48;6.08;;;;;;;25.03;65.18;100419.44;1815931;77;22313;-62
2021/06/24 02:09:43;;;;;;;16.30;6.15;;;;;;;25.01;65.20;100425.88;1852850;77;22175;-62
2021/06/24 02:12:29;;;;;;;9.95;5.22;;;;;;;24.94;65.29;100439.81;1796153;78;21183;-63
2021/06/24 02:15:07;;;;;;;11.08;6.15;;;;;;;24.92;65.30;100432.34;1821862;77;22190;-59
2021/06/24 02:17:41;;;;;;;13.05;5.75;;;;;;;24.90;65.35;100434.74;1835357;77;22246;-63
2021/06/24 02:20:16;;;;;;;12.85;5.80;;;;;;;24.89;65.36;100434.37;1834512;77;22625;-59
2021/06/24 02:22:49;;;;;;;14.10;5.97;;;;;;;24.90;65.40;100436.09;1798786;77;22201;-59
2021/06/24 02:25:36;;;;;;;19.23;6.05;;;;;;;24.82;65.61;100439.34;1757047;81;21186;-64
2021/06/24 02:28:09;;;;;;;25.72;7.53;;;;;;;24.86;65.54;100432.77;1810970;77;22230;-63
2021/06/24 02:30:42;;;;;;;16.25;5.85;;;;;;;24.83;65.64;100437.03;1831044;77;22116;-63
2021/06/24 02:33:16;;;;;;;13.53;6.50;;;;;;;24.84;65.66;100438.75;1803156;77;22609;-60
2021/06/24 02:36:05;;;;;;;12.15;6.10;;;;;;;24.71;66.08;100446.81;1732131;82;21178;-63
2021/06/24 02:38:38;;;;;;;16.15;6.83;;;;;;;24.80;66.21;100444.81;1822216;77;22201;-62
2021/06/24 02:41:11;;;;;;;11.70;6.37;;;;;;;24.77;66.48;100445.03;1826533;77;22128;-63
2021/06/24 02:43:44;;;;;;;16.37;6.53;;;;;;;24.86;66.44;100448.92;1831847;77;22183;-63
2021/06/24 02:46:17;;;;;;;19.07;7.45;;;;;;;24.80;66.78;100445.31;1803963;77;22182;-63
2021/06/24 02:49:03;;;;;;;16.85;6.87;;;;;;;24.78;66.93;100448.60;1733655;81;21942;-63
2021/06/24 02:51:37;;;;;;;13.65;6.47;;;;;;;24.86;66.87;100445.35;1818318;77;22228;-62
2021/06/24 02:54:10;;;;;;;13.15;6.83;;;;;;;24.87;66.97;100448.42;1834551;77;22132;-61
2021/06/24 02:56:43;;;;;;;10.90;6.20;;;;;;;24.88;67.29;100447.45;1830398;77;22179;-59
2021/06/24 02:59:17;;;;;;;12.15;6.72;;;;;;;24.90;67.54;100446.39;1833504;77;22591;-62
2021/06/24 03:02:04;;;;;;;11.93;6.20;;;;;;;24.78;67.97;100443.22;1793362;78;21713;-60
2021/06/24 03:04:37;;;;;;;9.43;5.83;;;;;;;24.92;67.81;100437.72;1834494;77;22654;-63
2021/06/24 03:07:10;;;;;;;15.20;6.50;;;;;;;25.04;67.72;100441.81;1822731;77;22601;-60
2021/06/24 03:09:43;;;;;;;18.32;6.85;;;;;;;24.99;68.15;100442.62;1821945;77;22195;-60
2021/06/24 03:12:31;;;;;;;18.90;7.37;;;;;;;24.93;68.34;100443.95;1746234;81;21179;-61
2021/06/24 03:15:06;;;;;;;12.93;7.17;;;;;;;25.00;68.60;100443.00;1834633;77;22175;-62
2021/06/24 03:17:39;;;;;;;12.60;6.85;;;;;;;25.12;68.61;100445.32;1813485;77;22158;-63
2021/06/24 03:20:28;;;;;;;15.58;6.92;;;;;;;25.26;68.30;100448.34;1746988;80;21529;-64
2021/06/24 03:23:00;;;;;;;16.80;8.48;;;;;;;25.42;68.43;100446.73;1793948;77;22215;-63
2021/06/24 03:25:33;;;;;;;14.90;7.78;;;;;;;25.47;68.45;100448.62;1832152;77;22160;-60
2021/06/24 03:28:19;;;;;;;12.00;6.80;;;;;;;25.48;68.74;100451.70;1767320;80;21130;-61
2021/06/24 03:30:52;;;;;;;17.82;7.75;;;;;;;25.61;68.73;100449.78;1852894;77;22202;-60
2021/06/24 03:33:25;;;;;;;16.17;7.72;;;;;;;25.53;69.39;100450.87;1825084;77;22217;-60
2021/06/24 03:35:58;;;;;;;16.15;7.28;;;;;;;25.79;68.86;100453.43;1823848;77;22155;-63
2021/06/24 03:38:31;;;;;;;16.25;8.10;;;;;;;25.78;69.09;100451.23;1826611;77;22191;-61
2021/06/24 03:41:12;;;;;;;14.85;7.80;;;;;;;25.93;69.07;100449.21;1833785;77;22161;-61
2021/06/24 03:43:58;;;;;;;17.42;8.98;;;;;;;25.98;69.17;100451.08;1759771;81;21127;-60
2021/06/24 03:46:32;;;;;;;16.15;8.80;;;;;;;26.13;69.59;100442.32;1825442;77;22188;-63
2021/06/24 03:49:06;;;;;;;14.63;8.90;;;;;;;26.22;69.74;100442.59;1807910;77;22214;-60
2021/06/24 03:51:39;;;;;;;18.02;9.50;;;;;;;26.36;70.08;100444.20;1831273;77;22176;-60
2021/06/24 03:54:25;;;;;;;17.70;9.13;;;;;;;26.41;69.99;100443.36;1746202;81;21570;-60
2021/06/24 03:56:58;;;;;;;16.20;9.90;;;;;;;26.48;70.26;100438.33;1819425;77;22230;-60
2021/06/24 03:59:31;;;;;;;22.07;10.30;;;;;;;26.57;70.31;100441.66;1819822;77;22140;-62
2021/06/24 04:02:05;;;;;;;16.85;9.85;;;;;;;26.72;70.63;100437.72;1820564;77;22225;-62
2021/06/24 04:04:51;;;;;;;15.83;9.75;;;;;;;26.79;70.46;100434.53;1764328;80;21250;-63
2021/06/24 04:07:25;;;;;;;16.85;10.30;;;;;;;26.95;70.43;100427.44;1820202;77;22222;-63
2021/06/24 04:09:58;;;;;;;17.62;11.55;;;;;;;27.08;70.63;100428.67;1852889;77;22164;-59
2021/06/24 04:12:45;;;;;;;20.23;11.18;;;;;;;27.20;70.81;100429.51;1800480;78;21150;-62
2021/06/24 04:15:18;;;;;;;16.37;11.12;;;;;;;27.39;70.49;100426.14;1818410;77;22151;-59
2021/06/24 04:18:00;;;;;;;21.77;10.85;;;;;;;27.53;70.52;100428.59;1803620;77;22246;-60
2021/06/24 04:20:34;;;;;;;25.43;11.38;;;;;;;27.64;70.19;100425.47;1831174;77;20964;-60
2021/06/24 04:23:08;;;;;;;20.48;9.98;;;;;;;27.73;70.22;100424.70;1796315;77;22676;-59
2021/06/24 04:25:55;;;;;;;17.77;8.95;;;;;;;27.81;69.90;100434.38;1752182;81;21562;-63
2021/06/24 04:28:28;;;;;;;17.67;9.10;;;;;;;27.99;69.70;100422.48;1787769;77;22612;-63
2021/06/24 04:31:02;;;;;;;18.05;9.33;;;;;;;28.11;69.46;100423.27;1833691;77;22178;-63
2021/06/24 04:33:49;;;;;;;19.60;8.80;;;;;;;28.22;69.26;100426.94;1791091;80;21126;-64
2021/06/24 04:36:22;;;;;;;16.50;9.40;;;;;;;28.35;68.71;100426.24;1829409;77;22162;-59
2021/06/24 04:38:55;;;;;;;18.05;9.00;;;;;;;28.40;68.27;100424.48;1828117;77;22163;-59
2021/06/24 04:41:41;;;;;;;18.20;9.25;;;;;;;28.41;68.09;100435.19;1764998;80;22238;-60
2021/06/24 04:44:15;;;;;;;15.45;9.00;;;;;;;28.55;68.35;100427.69;1814485;77;22193;-62
2021/06/24 04:46:48;;;;;;;12.63;8.15;;;;;;;28.61;68.28;100429.86;1829324;77;22174;-62
2021/06/24 04:49:21;;;;;;;16.35;8.68;;;;;;;28.77;67.98;100436.16;1827449;77;22198;-59
2021/06/24 04:52:15;;;;;;;20.97;9.90;;;;;;;28.83;67.60;100440.19;1737089;81;21198;-63
2021/06/24 04:54:49;;;;;;;17.05;8.50;;;;;;;29.01;67.21;100431.75;1833677;77;22163;-62
2021/06/24 04:57:22;;;;;;;14.58;7.10;;;;;;;29.13;66.69;100432.52;1815027;77;22623;-62
2021/06/24 04:59:55;;;;;;;11.90;6.80;;;;;;;29.24;64.90;100423.41;1845436;77;22575;-62
2021/06/24 05:02:34;;;;;;;12.58;6.80;;;;;;;29.40;64.20;100424.73;1818056;77;22189;-62
2021/06/24 05:05:21;;;;;;;11.10;6.55;;;;;;;29.51;63.49;100432.27;1724324;81;21331;-62
2021/06/24 05:07:55;;;;;;;19.77;7.62;;;;;;;29.79;63.33;100428.84;1809575;77;22665;-62
2021/06/24 05:10:28;;;;;;;11.95;6.75;;;;;;;30.01;62.60;100432.27;1817608;77;22207;-61
2021/06/24 05:13:01;;;;;;;20.08;7.70;;;;;;;30.22;62.82;100430.26;1814813;77;22210;-62
2021/06/24 05:15:35;;;;;;;17.60;7.95;;;;;;;30.39;62.80;100439.98;1818672;77;22189;-60
2021/06/24 05:18:08;;;;;;;14.85;7.03;;;;;;;30.78;62.75;100441.75;1807263;77;22218;-62
2021/06/24 05:20:44;;;;;;;14.65;7.47;;;;;;;30.98;61.87;100433.84;1820320;77;22587;-60
2021/06/24 05:23:30;;;;;;;16.40;7.95;;;;;;;31.08;61.94;100441.97;1786633;80;21271;-60
2021/06/24 05:26:03;;;;;;;15.98;7.87;;;;;;;31.31;61.29;100440.20;1823191;77;22181;-62
2021/06/24 05:28:36;;;;;;;17.73;8.20;;;;;;;31.45;61.05;100435.61;1798182;77;22202;-63
2021/06/24 05:31:09;;;;;;;16.35;7.72;;;;;;;31.58;60.92;100441.15;1834558;77;22179;-60
2021/06/24 05:33:43;;;;;;;11.25;6.80;;;;;;;31.82;60.15;100435.63;1813205;77;22155;-60
2021/06/24 05:36:31;;;;;;;13.28;7.22;;;;;;;32.01;59.88;100445.48;1767640;79;21107;-60
2021/06/24 05:39:05;;;;;;;14.87;6.78;;;;;;;32.32;58.91;100442.33;1834489;77;22192;-63
2021/06/24 05:41:38;;;;;;;12.60;6.42;;;;;;;32.59;58.35;100442.67;1829223;77;22155;-62
2021/06/24 05:44:12;;;;;;;13.13;6.53;;;;;;;32.83;57.73;100444.32;1818615;77;22127;-60
2021/06/24 05:47:00;;;;;;;17.75;7.45;;;;;;;32.93;56.82;100447.81;1773000;80;21156;-61
2021/06/24 05:49:33;;;;;;;14.35;6.72;;;;;;;33.11;56.66;100450.43;1827667;77;22750;-62
2021/06/24 05:52:07;;;;;;;14.05;6.97;;;;;;;33.33;55.90;100451.69;1819384;77;22218;-60
2021/06/24 05:54:40;;;;;;;17.65;6.92;;;;;;;33.48;55.41;100450.55;1817638;77;23186;-63
2021/06/24 05:57:26;;;;;;;16.93;7.35;;;;;;;33.62;54.85;100464.05;1727913;83;21119;-62
2021/06/24 05:59:59;;;;;;;17.77;6.75;;;;;;;33.76;54.39;100461.19;1852815;77;22629;-62
2021/06/24 06:02:33;;;;;;;12.70;6.58;;;;;;;33.90;54.21;100458.28;1801059;77;22240;-59
2021/06/24 06:05:07;;;;;;;14.98;7.37;;;;;;;34.15;53.67;100465.66;1813603;77;22143;-60
2021/06/24 06:07:40;;;;;;;13.00;6.72;;;;;;;34.43;53.44;100458.43;1817489;77;22586;-62
2021/06/24 06:10:26;;;;;;;19.73;7.08;;;;;;;34.58;52.79;100455.86;1759751;80;21289;-63
2021/06/24 06:12:59;;;;;;;15.35;5.87;;;;;;;34.87;52.44;100457.99;1802405;77;22671;-59
2021/06/24 06:15:38;;;;;;;12.78;5.75;;;;;;;35.12;51.69;100456.53;1821081;77;22186;-63
2021/06/24 06:18:25;;;;;;;16.02;6.10;;;;;;;35.32;51.50;100456.96;1792745;80;21166;-64
2021/06/24 06:20:58;;;;;;;16.90;6.37;;;;;;;35.50;50.90;100453.11;1825969;77;22174;-61
2021/06/24 06:23:31;;;;;;;13.70;6.25;;;;;;;35.74;50.07;100442.50;1799229;77;22198;-60
2021/06/24 06:26:04;;;;;;;14.53;6.35;;;;;;;35.95;50.00;100447.28;1834699;77;22164;-63
2021/06/24 06:28:52;;;;;;;12.43;5.65;;;;;;;36.07;49.47;100447.72;1755103;81;21134;-63
2021/06/24 06:39:54;;;;;;;20.65;6.53;;;;;;;36.80;47.01;100438.92;1805625;77;27935;-61
2021/06/24 06:42:27;;;;;;;17.73;5.97;;;;;;;36.78;46.35;100436.05;1813658;77;22226;-63
2021/06/24 06:45:14;;;;;;;13.50;5.87;;;;;;;36.75;46.70;100438.64;1761784;80;21135;-61
2021/06/24 06:47:47;;;;;;;17.57;6.30;;;;;;;37.23;46.16;100442.34;1826835;77;22189;-63
2021/06/24 06:50:21;;;;;;;16.35;5.25;;;;;;;37.45;45.83;100441.88;1810936;77;22150;-63
2021/06/24 06:52:54;;;;;;;15.40;5.67;;;;;;;37.74;44.47;100444.69;1807579;77;22216;-60
2021/06/24 06:55:30;;;;;;;12.03;4.53;;;;;;;37.97;44.63;100440.89;1834540;77;22176;-60
2021/06/24 06:58:16;;;;;;;17.62;6.10;;;;;;;38.07;43.75;100433.16;1749926;80;21223;-61
2021/06/24 07:00:49;;;;;;;18.70;5.58;;;;;;;38.28;42.60;100430.88;1821771;77;22159;-64
2021/06/24 07:03:22;;;;;;;11.68;4.78;;;;;;;38.33;42.65;100428.89;1799109;77;22218;-61
2021/06/24 07:05:55;;;;;;;14.50;4.95;;;;;;;38.28;42.37;100430.88;1823768;77;22123;-63
2021/06/24 07:08:29;;;;;;;12.78;4.95;;;;;;;38.52;42.13;100427.34;1799470;77;22733;-61
2021/06/24 07:11:05;;;;;;;14.83;6.12;;;;;;;38.73;40.92;100429.69;1834571;77;22179;-62
2021/06/24 07:13:38;;;;;;;18.80;5.90;;;;;;;38.72;40.67;100421.95;1803929;77;22198;-64
2021/06/24 07:16:11;;;;;;;17.92;5.92;;;;;;;38.63;40.99;100415.78;1840571;77;22558;-64
2021/06/24 07:18:56;;;;;;;13.50;4.95;;;;;;;38.61;41.19;100418.43;1792971;80;22196;-65
2021/06/24 07:21:29;;;;;;;18.42;5.83;;;;;;;38.83;41.14;100421.38;1829073;77;22155;-65
2021/06/24 07:24:04;;;;;;;13.45;4.20;;;;;;;39.02;40.76;100422.22;1842968;77;22158;-62
2021/06/24 07:26:51;;;;;;;16.60;5.15;;;;;;;39.05;40.27;100419.92;1787049;80;21353;-64
2021/06/24 07:29:24;;;;;;;14.80;5.22;;;;;;;39.21;39.55;100420.06;1852818;77;22199;-64
2021/06/24 07:31:57;;;;;;;16.60;5.53;;;;;;;39.21;39.45;100424.70;1822497;77;22233;-60
2021/06/24 07:34:31;;;;;;;22.07;5.78;;;;;;;39.29;39.81;100425.89;1818656;77;22185;-64
2021/06/24 07:37:04;;;;;;;12.80;4.47;;;;;;;39.54;39.21;100420.68;1818200;77;22221;-65
2021/06/24 07:39:37;;;;;;;18.57;5.40;;;;;;;39.65;38.11;100417.83;1823943;77;22188;-64
2021/06/24 07:42:10;;;;;;;14.85;5.50;;;;;;;39.66;35.95;100422.27;1793670;77;22253;-63
2021/06/24 07:44:56;;;;;;;16.00;5.60;;;;;;;39.48;37.33;100422.06;1729806;83;21179;-65
2021/06/24 07:47:29;;;;;;;15.08;5.08;;;;;;;39.43;37.35;100425.97;1835112;77;22186;-61
2021/06/24 07:50:04;;;;;;;15.88;5.17;;;;;;;39.64;37.74;100424.39;1833259;77;22180;-61
2021/06/24 07:52:37;;;;;;;15.15;5.00;;;;;;;39.69;36.92;100422.40;1836147;77;22201;-61
2021/06/24 07:55:22;;;;;;;15.05;5.08;;;;;;;39.52;37.19;100426.09;1793004;80;21142;-65
2021/06/24 07:57:55;;;;;;;18.90;5.47;;;;;;;39.50;37.14;100418.57;1799803;77;22237;-62
2021/06/24 08:00:29;;;;;;;15.95;4.97;;;;;;;39.56;36.70;100419.08;1824930;77;22171;-64
2021/06/24 08:03:03;;;;;;;24.12;6.50;;;;;;;39.51;36.88;100418.89;1812527;77;22174;-64
2021/06/24 08:05:36;;;;;;;15.65;5.75;;;;;;;39.68;36.56;100422.08;1821390;77;22162;-61
2021/06/24 08:08:10;;;;;;;15.10;5.10;;;;;;;39.57;36.59;100422.16;1828629;77;22225;-64
2021/06/24 08:10:43;;;;;;;15.63;5.97;;;;;;;39.69;37.46;100423.77;1851680;77;22263;-61
2021/06/24 08:13:16;;;;;;;12.80;4.45;;;;;;;39.79;36.93;100415.95;1809205;77;22226;-64
2021/06/24 08:15:50;;;;;;;17.40;5.95;;;;;;;39.90;36.59;100408.11;1804682;77;22624;-64
2021/06/24 08:18:23;;;;;;;18.20;5.30;;;;;;;39.96;36.34;100419.12;1804509;77;22214;-61
2021/06/24 08:21:09;;;;;;;14.63;5.45;;;;;;;40.02;36.27;100422.95;1764457;81;21122;-62
2021/06/24 08:23:43;;;;;;;14.68;5.70;;;;;;;40.09;36.17;100416.91;1819381;77;22197;-61
2021/06/24 08:26:16;;;;;;;15.60;5.37;;;;;;;40.27;35.47;100414.89;1834497;77;22172;-64
2021/06/24 08:29:02;;;;;;;17.75;6.20;;;;;;;40.39;35.17;100418.38;1697374;84;21668;-64
2021/06/24 08:31:36;;;;;;;15.18;6.12;;;;;;;40.47;35.11;100409.84;1819727;77;22210;-64
2021/06/24 08:34:09;;;;;;;17.00;5.62;;;;;;;40.39;34.69;100417.83;1834416;77;22175;-61
2021/06/24 08:36:42;;;;;;;16.97;5.40;;;;;;;40.35;34.66;100411.59;1829958;77;22199;-61
2021/06/24 08:39:28;;;;;;;13.45;5.03;;;;;;;40.40;35.40;100415.94;1756078;81;21147;-62
2021/06/24 08:42:02;;;;;;;15.53;6.12;;;;;;;40.56;34.87;100414.61;1818470;77;22677;-61
2021/06/24 08:44:36;;;;;;;11.60;5.45;;;;;;;40.67;33.94;100418.62;1833087;77;22163;-61
2021/06/24 08:47:22;;;;;;;9.75;4.80;;;;;;;40.64;34.17;100421.23;1780868;80;21609;-62
2021/06/24 08:49:58;;;;;;;18.55;7.03;;;;;;;40.96;35.21;100419.99;1834455;77;22203;-60
2021/06/24 08:52:31;;;;;;;16.07;5.55;;;;;;;41.30;35.02;100424.81;1818954;77;22178;-64
2021/06/24 08:55:18;;;;;;;14.30;4.90;;;;;;;41.55;34.77;100436.45;1758653;81;21582;-63
2021/06/24 08:57:51;;;;;;;13.98;5.62;;;;;;;42.06;34.03;100429.59;1806951;77;22225;-62
2021/06/24 09:00:26;;;;;;;13.45;5.33;;;;;;;42.45;33.65;100433.60;1834185;77;22179;-61
2021/06/24 09:03:13;;;;;;;17.17;5.17;;;;;;;42.68;33.11;100432.05;1805953;77;22222;-64
2021/06/24 09:06:04;;;;;;;13.55;4.75;;;;;;;43.00;32.57;100433.29;1730920;82;21336;-64
2021/06/24 09:08:53;;;;;;;15.10;5.35;;;;;;;43.33;32.07;100434.77;1804494;77;22215;-62
2021/06/24 09:11:24;;;;;;;18.10;5.10;;;;;;;43.30;31.39;100429.14;1830933;77;22582;-64
2021/06/24 09:14:16;;;;;;;15.60;5.92;;;;;;;43.42;30.62;100425.57;1731691;83;21155;-62
2021/06/24 09:16:47;;;;;;;13.68;4.75;;;;;;;43.41;30.90;100423.36;1826795;77;22637;-64
2021/06/24 09:19:24;;;;;;;13.10;5.08;;;;;;;43.66;30.66;100423.72;1852766;77;22749;-61
2021/06/24 09:22:07;;;;;;;14.33;5.35;;;;;;;43.80;29.99;100411.34;1812456;77;22309;-62
2021/06/24 09:24:54;;;;;;;12.80;4.83;;;;;;;43.78;29.48;100417.66;1761789;81;21622;-62
2021/06/24 09:27:29;;;;;;;16.90;4.78;;;;;;;43.65;30.14;100412.34;1821039;77;22118;-61
2021/06/24 09:30:09;;;;;;;18.40;5.53;;;;;;;43.85;31.01;100408.39;1811625;77;28404;-63
2021/06/24 09:32:46;;;;;;;11.90;4.90;;;;;;;44.23;30.54;100412.63;1817035;77;22308;-64
2021/06/24 09:35:31;;;;;;;13.20;5.33;;;;;;;44.32;29.83;100407.55;1761610;80;21119;-65
2021/06/24 09:38:13;;;;;;;14.80;4.87;;;;;;;44.23;30.01;100402.92;1802293;77;22316;-64
2021/06/24 09:40:54;;;;;;;15.60;5.12;;;;;;;44.19;30.79;100401.16;1834138;77;22125;-64
2021/06/24 09:43:41;;;;;;;16.10;4.92;;;;;;;44.37;29.91;100406.27;1763457;80;21147;-62
2021/06/24 09:46:18;;;;;;;16.45;5.20;;;;;;;44.40;29.26;100401.07;1826955;77;22316;-61
2021/06/24 09:48:59;;;;;;;15.45;5.45;;;;;;;44.40;29.11;100393.31;1886350;74;22151;-63
2021/06/24 09:51:50;;;;;;;15.05;5.25;;;;;;;44.30;29.80;100398.62;1864262;77;21138;-62
2021/06/24 09:54:39;;;;;;;16.70;5.62;;;;;;;43.95;30.00;100391.98;1834274;77;22089;-63
2021/06/24 09:57:24;;;;;;;13.03;5.15;;;;;;;44.21;31.02;100390.67;1820125;77;22309;-61
2021/06/24 09:59:57;;;;;;;12.18;5.33;;;;;;;44.87;30.17;100384.60;1834123;77;22536;-62
2021/06/24 10:02:30;;;;;;;15.20;5.70;;;;;;;44.99;28.72;100384.02;1837438;77;22335;-62
2021/06/24 10:05:05;;;;;;;15.13;5.37;;;;;;;44.58;28.89;100379.84;1828220;77;22089;-63
2021/06/24 10:07:38;;;;;;;17.85;7.05;;;;;;;44.22;29.71;100378.50;1795794;77;28110;-61
2021/06/24 10:10:13;;;;;;;14.80;6.25;;;;;;;44.27;29.77;100377.22;1834193;77;22734;-61
2021/06/24 10:12:46;;;;;;;11.63;5.42;;;;;;;44.31;29.77;100374.83;1814052;77;22285;-61
2021/06/24 10:15:33;;;;;;;12.90;5.62;;;;;;;44.44;30.17;100376.48;1757079;81;21170;-62
2021/06/24 10:18:07;;;;;;;15.48;5.25;;;;;;;44.80;28.96;100374.45;1811203;77;22131;-64
2021/06/24 10:20:40;;;;;;;15.00;5.60;;;;;;;44.46;29.81;100379.88;1834079;77;22125;-62
2021/06/24 10:23:18;;;;;;;14.78;5.85;;;;;;;44.33;30.01;100375.95;1827664;77;22143;-62
2021/06/24 10:26:04;;;;;;;13.95;5.35;;;;;;;44.30;30.14;100377.30;1771993;80;21107;-62
2021/06/24 10:28:37;;;;;;;12.28;5.15;;;;;;;44.38;29.75;100377.45;1790429;77;22154;-62
2021/06/24 10:31:44;;;;;;;13.25;4.97;;;;;;;44.18;29.01;100380.06;1834486;77;22628;-63
2021/06/24 10:34:18;;;;;;;13.10;5.53;;;;;;;43.80;29.68;100367.00;1820982;77;22272;-63
2021/06/24 10:37:15;;;;;;;12.30;5.33;;;;;;;43.77;30.56;100372.16;1827981;77;22159;-61
2021/06/24 10:40:22;;;;;;;15.45;5.42;;;;;;;43.95;29.83;100366.52;1852818;77;22116;-61
2021/06/24 10:42:57;;;;;;;13.80;5.05;;;;;;;44.28;29.81;100371.16;1808794;77;22135;-61
2021/06/24 10:45:31;;;;;;;10.55;5.20;;;;;;;44.60;29.54;100362.97;1852820;77;22152;-63
2021/06/24 10:48:26;;;;;;;16.85;5.40;;;;;;;44.78;29.11;100366.09;1829933;77;22134;-62
2021/06/24 10:51:03;;;;;;;11.70;6.10;;;;;;;44.69;28.83;100363.70;1846010;77;20498;-62
2021/06/24 10:53:48;;;;;;;14.80;5.83;;;;;;;44.59;28.77;100362.66;1808580;77;22482;-62
2021/06/24 10:56:32;;;;;;;16.17;6.33;;;;;;;44.52;28.74;100371.97;1837229;77;28094;-61
2021/06/24 10:59:29;;;;;;;15.80;5.08;;;;;;;44.29;28.71;100373.36;1825063;78;21206;-61
2021/06/24 11:02:08;;;;;;;14.03;5.53;;;;;;;44.11;29.28;100364.12;1813159;77;22696;-62
2021/06/24 11:04:42;;;;;;;12.50;5.45;;;;;;;44.00;29.26;100363.56;1843004;77;22308;-61
2021/06/24 11:07:23;;;;;;;14.03;5.83;;;;;;;43.94;29.44;100362.58;1823093;77;22293;-61
2021/06/24 11:10:21;;;;;;;17.25;6.22;;;;;;;44.00;29.05;100358.02;1828390;77;22089;-64
2021/06/24 11:13:05;;;;;;;14.45;5.12;;;;;;;43.78;28.95;100353.07;1830202;77;22134;-63
2021/06/24 11:15:52;;;;;;;14.20;5.72;;;;;;;43.64;29.43;100358.84;1818826;77;28171;-62
2021/06/24 11:18:44;;;;;;;14.40;5.75;;;;;;;43.53;29.83;100357.72;1763243;80;21170;-61
2021/06/24 11:21:31;;;;;;;12.58;4.90;;;;;;;43.85;29.62;100355.19;1836581;77;22142;-64
2021/06/24 11:24:14;;;;;;;13.10;5.55;;;;;;;44.34;29.63;100359.09;1834420;77;22207;-61
2021/06/24 11:26:51;;;;;;;19.02;6.00;;;;;;;44.55;29.14;100349.81;1829328;77;22131;-63
2021/06/24 11:29:29;;;;;;;14.70;5.03;;;;;;;44.87;29.33;100354.06;1823091;77;22056;-63
2021/06/24 11:32:20;;;;;;;12.25;4.62;;;;;;;45.14;28.65;100356.50;1826084;77;22547;-63
2021/06/24 11:35:29;;;;;;;13.98;4.97;;;;;;;45.23;28.14;100351.41;1834513;77;22267;-63
2021/06/24 11:38:02;;;;;;;13.22;4.80;;;;;;;45.06;28.15;100357.47;1765778;80;21218;-62
2021/06/24 11:40:35;;;;;;;17.10;5.22;;;;;;;45.03;28.50;100353.27;1833559;77;22211;-61
2021/06/24 11:43:08;;;;;;;14.68;5.00;;;;;;;44.94;28.18;100347.82;1796673;77;22538;-62
2021/06/24 11:45:44;;;;;;;13.45;5.25;;;;;;;44.92;27.77;100343.06;1834545;77;22271;-62
2021/06/24 11:48:29;;;;;;;12.05;4.72;;;;;;;44.68;28.24;100339.81;1700218;83;21150;-62
2021/06/24 12:03:08;;;;;;;18.17;5.17;;;;;;;44.81;27.60;100327.56;1817008;77;22284;-62
2021/06/24 12:05:54;;;;;;;16.15;4.35;;;;;;;44.80;28.83;100327.83;1776594;80;21595;-64
2021/06/24 12:08:28;;;;;;;19.23;5.20;;;;;;;44.96;28.64;100322.05;1794994;77;22166;-62
2021/06/24 12:11:11;;;;;;;14.73;4.80;;;;;;;44.95;28.47;100314.25;1826707;77;22697;-63
2021/06/24 12:13:44;;;;;;;18.67;5.62;;;;;;;45.00;28.14;100314.91;1812907;77;22589;-64
2021/06/24 12:16:31;;;;;;;14.13;4.08;;;;;;;44.69;28.60;100323.47;1768161;80;21135;-64
2021/06/24 12:19:04;;;;;;;14.15;4.85;;;;;;;44.50;27.66;100326.98;1815995;77;22107;-62
2021/06/24 12:21:38;;;;;;;19.67;4.80;;;;;;;44.28;28.87;100328.17;1821194;77;22302;-63
2021/06/24 12:24:11;;;;;;;19.80;5.75;;;;;;;44.33;29.27;100324.12;1819972;77;22080;-65
2021/06/24 12:26:56;;;;;;;12.47;4.67;;;;;;;44.50;28.90;100326.13;1784633;80;21163;-65